sensor_id;sensor_type;location;lat;lon;timestamp;temperature;humidity
20957;DHT22;10637;47.970;7.830;2023-04-08T00:00:52;7.30;99.90
20957;DHT22;10637;47.970;7.830;2023-04-08T00:05:54;7.30;99.90
20957;DHT22;10637;47.970;7.830;2023-04-08T00:10:56;7.10;99.90
20957;DHT22;10637;47.970;7.830;2023-04-08T00:15:58;7.10;99.90
20957;DHT22;10637;47.970;7.830;2023-04-08T00:20:59;7.10;99.90
20957;DHT22;10637;47.970;7.830;2023-04-08T00:26:01;6.90;99.90
20957;DHT22;10637;47.970;7.830;2023-04-08T00:31:03;6.60;99.90
20957;DHT22;10637;47.970;7.830;2023-04-08T00:36:06;6.60;99.90
20957;DHT22;10637;47.970;7.830;2023-04-08T00:41:07;6.70;99.90
20957;DHT22;10637;47.970;7.830;2023-04-08T00:46:09;7.00;99.90
20957;DHT22;10637;47.970;7.830;2023-04-08T00:51:11;7.20;99.90
20957;DHT22;10637;47.970;7.830;2023-04-08T00:56:13;7.30;99.90
20957;DHT22;10637;47.970;7.830;2023-04-08T01:01:42;7.40;99.90
20957;DHT22;10637;47.970;7.830;2023-04-08T01:12:05;7.30;99.90
20957;DHT22;10637;47.970;7.830;2023-04-08T01:17:08;6.80;99.90
20957;DHT22;10637;47.970;7.830;2023-04-08T01:27:26;7.00;99.90
20957;DHT22;10637;47.970;7.830;2023-04-08T01:32:29;7.00;99.90
20957;DHT22;10637;47.970;7.830;2023-04-08T01:37:32;7.00;99.90
20957;DHT22;10637;47.970;7.830;2023-04-08T01:42:35;7.10;99.90
20957;DHT22;10637;47.970;7.830;2023-04-08T01:47:38;7.00;99.90
20957;DHT22;10637;47.970;7.830;2023-04-08T01:52:43;7.10;99.90
20957;DHT22;10637;47.970;7.830;2023-04-08T01:57:50;7.10;99.90
20957;DHT22;10637;47.970;7.830;2023-04-08T02:02:53;7.10;99.90
20957;DHT22;10637;47.970;7.830;2023-04-08T02:07:56;6.90;99.90
20957;DHT22;10637;47.970;7.830;2023-04-08T02:12:58;6.70;99.90
20957;DHT22;10637;47.970;7.830;2023-04-08T02:18:06;6.80;99.90
20957;DHT22;10637;47.970;7.830;2023-04-08T02:23:19;6.90;99.90
20957;DHT22;10637;47.970;7.830;2023-04-08T02:28:22;7.10;99.90
20957;DHT22;10637;47.970;7.830;2023-04-08T02:33:27;7.10;99.90
20957;DHT22;10637;47.970;7.830;2023-04-08T02:38:29;7.20;99.90
20957;DHT22;10637;47.970;7.830;2023-04-08T02:43:31;7.00;99.90
20957;DHT22;10637;47.970;7.830;2023-04-08T02:48:33;6.90;99.90
20957;DHT22;10637;47.970;7.830;2023-04-08T02:53:34;6.70;99.90
20957;DHT22;10637;47.970;7.830;2023-04-08T02:58:36;6.60;99.90
20957;DHT22;10637;47.970;7.830;2023-04-08T03:03:38;6.90;99.90
20957;DHT22;10637;47.970;7.830;2023-04-08T03:08:40;6.80;99.90
20957;DHT22;10637;47.970;7.830;2023-04-08T03:13:42;6.70;99.90
20957;DHT22;10637;47.970;7.830;2023-04-08T03:18:43;7.00;99.90
20957;DHT22;10637;47.970;7.830;2023-04-08T03:23:45;7.10;99.90
20957;DHT22;10637;47.970;7.830;2023-04-08T03:28:47;7.10;99.90
20957;DHT22;10637;47.970;7.830;2023-04-08T03:33:49;7.30;99.90
20957;DHT22;10637;47.970;7.830;2023-04-08T03:38:51;7.30;99.90
20957;DHT22;10637;47.970;7.830;2023-04-08T03:43:53;7.40;99.90
20957;DHT22;10637;47.970;7.830;2023-04-08T03:48:54;7.40;99.90
20957;DHT22;10637;47.970;7.830;2023-04-08T03:53:56;7.50;99.90
20957;DHT22;10637;47.970;7.830;2023-04-08T03:58:58;7.50;99.90
20957;DHT22;10637;47.970;7.830;2023-04-08T04:04:00;7.40;99.90
20957;DHT22;10637;47.970;7.830;2023-04-08T04:09:02;7.40;99.90
20957;DHT22;10637;47.970;7.830;2023-04-08T04:14:04;7.40;99.90
20957;DHT22;10637;47.970;7.830;2023-04-08T04:19:06;7.30;99.90
20957;DHT22;10637;47.970;7.830;2023-04-08T04:24:07;7.30;99.90
20957;DHT22;10637;47.970;7.830;2023-04-08T04:29:09;7.40;99.90
20957;DHT22;10637;47.970;7.830;2023-04-08T04:34:11;7.50;99.90
20957;DHT22;10637;47.970;7.830;2023-04-08T04:39:12;7.50;99.90
20957;DHT22;10637;47.970;7.830;2023-04-08T04:44:14;7.50;99.90
20957;DHT22;10637;47.970;7.830;2023-04-08T04:49:16;7.50;99.90
20957;DHT22;10637;47.970;7.830;2023-04-08T04:54:18;7.50;99.90
20957;DHT22;10637;47.970;7.830;2023-04-08T04:59:20;7.50;99.90
20957;DHT22;10637;47.970;7.830;2023-04-08T05:04:24;7.50;99.90
20957;DHT22;10637;47.970;7.830;2023-04-08T05:09:28;7.40;99.90
20957;DHT22;10637;47.970;7.830;2023-04-08T05:14:29;7.50;99.90
20957;DHT22;10637;47.970;7.830;2023-04-08T05:19:31;7.40;99.90
20957;DHT22;10637;47.970;7.830;2023-04-08T05:24:33;7.20;99.90
20957;DHT22;10637;47.970;7.830;2023-04-08T05:29:35;6.80;99.90
20957;DHT22;10637;47.970;7.830;2023-04-08T05:34:37;6.80;99.90
20957;DHT22;10637;47.970;7.830;2023-04-08T05:39:38;6.90;99.90
20957;DHT22;10637;47.970;7.830;2023-04-08T05:44:40;7.20;99.90
20957;DHT22;10637;47.970;7.830;2023-04-08T05:49:44;7.50;99.90
20957;DHT22;10637;47.970;7.830;2023-04-08T05:54:46;7.60;99.90
20957;DHT22;10637;47.970;7.830;2023-04-08T05:59:47;7.80;99.90
20957;DHT22;10637;47.970;7.830;2023-04-08T06:04:49;7.90;99.90
20957;DHT22;10637;47.970;7.830;2023-04-08T06:09:51;7.80;99.90
20957;DHT22;10637;47.970;7.830;2023-04-08T06:14:56;7.80;99.90
20957;DHT22;10637;47.970;7.830;2023-04-08T06:19:59;8.00;99.90
20957;DHT22;10637;47.970;7.830;2023-04-08T06:25:01;8.10;99.90
20957;DHT22;10637;47.970;7.830;2023-04-08T06:30:03;8.30;99.90
20957;DHT22;10637;47.970;7.830;2023-04-08T06:35:06;8.40;99.90
20957;DHT22;10637;47.970;7.830;2023-04-08T06:40:08;8.50;99.90
20957;DHT22;10637;47.970;7.830;2023-04-08T06:45:10;8.70;99.90
20957;DHT22;10637;47.970;7.830;2023-04-08T06:50:12;8.90;99.90
20957;DHT22;10637;47.970;7.830;2023-04-08T06:55:13;9.10;99.90
20957;DHT22;10637;47.970;7.830;2023-04-08T07:00:15;9.20;99.90
20957;DHT22;10637;47.970;7.830;2023-04-08T07:05:17;9.30;99.90
20957;DHT22;10637;47.970;7.830;2023-04-08T07:10:19;9.40;99.90
20957;DHT22;10637;47.970;7.830;2023-04-08T07:15:20;9.30;99.90
20957;DHT22;10637;47.970;7.830;2023-04-08T07:20:22;9.40;99.90
20957;DHT22;10637;47.970;7.830;2023-04-08T07:25:24;9.40;99.90
20957;DHT22;10637;47.970;7.830;2023-04-08T07:30:26;9.60;99.90
20957;DHT22;10637;47.970;7.830;2023-04-08T07:35:28;9.80;99.90
20957;DHT22;10637;47.970;7.830;2023-04-08T07:40:30;9.80;99.90
20957;DHT22;10637;47.970;7.830;2023-04-08T07:45:32;10.10;99.90
20957;DHT22;10637;47.970;7.830;2023-04-08T07:50:35;10.40;99.90
20957;DHT22;10637;47.970;7.830;2023-04-08T07:55:58;10.60;99.90
20957;DHT22;10637;47.970;7.830;2023-04-08T08:01:00;10.80;99.90
20957;DHT22;10637;47.970;7.830;2023-04-08T08:06:01;10.90;99.90
20957;DHT22;10637;47.970;7.830;2023-04-08T08:11:03;11.10;99.90
20957;DHT22;10637;47.970;7.830;2023-04-08T08:16:05;11.40;99.90
20957;DHT22;10637;47.970;7.830;2023-04-08T08:21:09;11.30;99.90
20957;DHT22;10637;47.970;7.830;2023-04-08T08:26:11;11.60;99.90
20957;DHT22;10637;47.970;7.830;2023-04-08T08:31:13;11.80;99.90
20957;DHT22;10637;47.970;7.830;2023-04-08T08:36:15;11.80;99.90
20957;DHT22;10637;47.970;7.830;2023-04-08T08:41:16;11.80;99.90
20957;DHT22;10637;47.970;7.830;2023-04-08T08:46:18;12.10;99.90
20957;DHT22;10637;47.970;7.830;2023-04-08T08:51:23;12.20;99.90
20957;DHT22;10637;47.970;7.830;2023-04-08T08:56:26;12.30;99.90
20957;DHT22;10637;47.970;7.830;2023-04-08T09:01:38;12.70;99.90
20957;DHT22;10637;47.970;7.830;2023-04-08T09:06:41;12.90;99.90
20957;DHT22;10637;47.970;7.830;2023-04-08T09:11:45;13.00;99.90
20957;DHT22;10637;47.970;7.830;2023-04-08T09:16:48;13.20;99.90
20957;DHT22;10637;47.970;7.830;2023-04-08T09:22:11;13.10;99.90
20957;DHT22;10637;47.970;7.830;2023-04-08T09:27:12;13.00;99.90
20957;DHT22;10637;47.970;7.830;2023-04-08T09:32:14;12.80;99.90
20957;DHT22;10637;47.970;7.830;2023-04-08T09:37:16;13.20;99.90
20957;DHT22;10637;47.970;7.830;2023-04-08T09:42:19;13.00;99.90
20957;DHT22;10637;47.970;7.830;2023-04-08T09:47:24;13.20;99.90
20957;DHT22;10637;47.970;7.830;2023-04-08T09:52:52;13.00;99.90
20957;DHT22;10637;47.970;7.830;2023-04-08T09:57:59;13.30;99.90
20957;DHT22;10637;47.970;7.830;2023-04-08T10:08:23;13.30;99.90
20957;DHT22;10637;47.970;7.830;2023-04-08T10:13:27;13.40;99.90
20957;DHT22;10637;47.970;7.830;2023-04-08T10:18:30;13.30;99.90
20957;DHT22;10637;47.970;7.830;2023-04-08T10:23:54;13.30;99.90
20957;DHT22;10637;47.970;7.830;2023-04-08T10:34:24;13.60;99.90
20957;DHT22;10637;47.970;7.830;2023-04-08T10:39:27;13.80;99.90
20957;DHT22;10637;47.970;7.830;2023-04-08T10:44:29;14.10;99.90
20957;DHT22;10637;47.970;7.830;2023-04-08T10:49:32;13.60;99.90
20957;DHT22;10637;47.970;7.830;2023-04-08T10:54:36;13.70;99.90
20957;DHT22;10637;47.970;7.830;2023-04-08T10:59:38;14.10;99.90
20957;DHT22;10637;47.970;7.830;2023-04-08T11:04:41;14.10;99.90
20957;DHT22;10637;47.970;7.830;2023-04-08T11:09:43;14.30;99.90
20957;DHT22;10637;47.970;7.830;2023-04-08T11:14:45;14.20;99.90
20957;DHT22;10637;47.970;7.830;2023-04-08T11:19:49;14.70;99.90
20957;DHT22;10637;47.970;7.830;2023-04-08T11:24:54;14.80;99.90
20957;DHT22;10637;47.970;7.830;2023-04-08T11:29:56;15.40;99.90
20957;DHT22;10637;47.970;7.830;2023-04-08T11:35:00;16.20;99.90
20957;DHT22;10637;47.970;7.830;2023-04-08T11:40:09;17.10;99.90
20957;DHT22;10637;47.970;7.830;2023-04-08T11:45:12;16.90;99.90
20957;DHT22;10637;47.970;7.830;2023-04-08T11:50:24;17.20;99.90
20957;DHT22;10637;47.970;7.830;2023-04-08T11:55:28;17.60;99.90
20957;DHT22;10637;47.970;7.830;2023-04-08T12:00:30;18.80;99.90
20957;DHT22;10637;47.970;7.830;2023-04-08T12:05:33;19.70;97.60
20957;DHT22;10637;47.970;7.830;2023-04-08T12:10:35;18.80;96.50
20957;DHT22;10637;47.970;7.830;2023-04-08T12:15:37;17.90;97.10
20957;DHT22;10637;47.970;7.830;2023-04-08T12:20:39;17.10;96.60
20957;DHT22;10637;47.970;7.830;2023-04-08T12:25:41;16.40;99.60
20957;DHT22;10637;47.970;7.830;2023-04-08T12:30:42;15.80;99.90
20957;DHT22;10637;47.970;7.830;2023-04-08T12:35:44;15.60;99.90
20957;DHT22;10637;47.970;7.830;2023-04-08T12:40:46;15.40;99.90
20957;DHT22;10637;47.970;7.830;2023-04-08T12:45:50;15.30;99.90
20957;DHT22;10637;47.970;7.830;2023-04-08T12:50:52;15.10;99.90
20957;DHT22;10637;47.970;7.830;2023-04-08T12:55:54;15.20;99.90
20957;DHT22;10637;47.970;7.830;2023-04-08T13:00:57;15.00;99.90
20957;DHT22;10637;47.970;7.830;2023-04-08T13:05:59;14.90;99.90
20957;DHT22;10637;47.970;7.830;2023-04-08T13:11:01;15.30;99.90
20957;DHT22;10637;47.970;7.830;2023-04-08T13:16:03;17.10;97.80
20957;DHT22;10637;47.970;7.830;2023-04-08T13:21:05;17.40;95.00
20957;DHT22;10637;47.970;7.830;2023-04-08T13:26:06;17.50;96.60
20957;DHT22;10637;47.970;7.830;2023-04-08T13:31:08;17.20;95.90
20957;DHT22;10637;47.970;7.830;2023-04-08T13:36:10;16.60;96.40
20957;DHT22;10637;47.970;7.830;2023-04-08T13:41:11;16.20;98.00
20957;DHT22;10637;47.970;7.830;2023-04-08T13:46:13;15.90;98.10
20957;DHT22;10637;47.970;7.830;2023-04-08T13:51:15;15.60;98.00
20957;DHT22;10637;47.970;7.830;2023-04-08T13:56:17;15.70;98.50
20957;DHT22;10637;47.970;7.830;2023-04-08T14:01:19;15.90;98.30
20957;DHT22;10637;47.970;7.830;2023-04-08T14:06:20;15.60;97.50
20957;DHT22;10637;47.970;7.830;2023-04-08T14:11:22;15.50;97.50
20957;DHT22;10637;47.970;7.830;2023-04-08T14:16:24;15.40;98.00
20957;DHT22;10637;47.970;7.830;2023-04-08T14:21:26;15.20;98.70
20957;DHT22;10637;47.970;7.830;2023-04-08T14:26:28;15.10;98.80
20957;DHT22;10637;47.970;7.830;2023-04-08T14:31:30;14.90;99.30
20957;DHT22;10637;47.970;7.830;2023-04-08T14:36:32;14.50;99.20
20957;DHT22;10637;47.970;7.830;2023-04-08T14:41:34;14.50;99.80
20957;DHT22;10637;47.970;7.830;2023-04-08T14:46:37;14.40;99.90
20957;DHT22;10637;47.970;7.830;2023-04-08T14:51:39;14.30;99.90
20957;DHT22;10637;47.970;7.830;2023-04-08T14:56:40;14.10;99.90
20957;DHT22;10637;47.970;7.830;2023-04-08T15:01:42;14.00;99.90
20957;DHT22;10637;47.970;7.830;2023-04-08T15:06:45;13.90;99.90
20957;DHT22;10637;47.970;7.830;2023-04-08T15:11:47;13.80;99.90
20957;DHT22;10637;47.970;7.830;2023-04-08T15:16:49;13.70;99.90
20957;DHT22;10637;47.970;7.830;2023-04-08T15:21:51;13.70;99.90
20957;DHT22;10637;47.970;7.830;2023-04-08T15:26:52;13.50;99.90
20957;DHT22;10637;47.970;7.830;2023-04-08T15:31:54;13.50;99.90
20957;DHT22;10637;47.970;7.830;2023-04-08T15:36:56;13.50;99.90
20957;DHT22;10637;47.970;7.830;2023-04-08T15:41:58;13.50;99.90
20957;DHT22;10637;47.970;7.830;2023-04-08T15:46:59;13.40;99.90
20957;DHT22;10637;47.970;7.830;2023-04-08T15:52:01;13.60;99.90
20957;DHT22;10637;47.970;7.830;2023-04-08T15:57:03;13.60;99.90
20957;DHT22;10637;47.970;7.830;2023-04-08T16:02:05;13.60;99.90
20957;DHT22;10637;47.970;7.830;2023-04-08T16:07:07;13.40;99.90
20957;DHT22;10637;47.970;7.830;2023-04-08T16:12:09;13.30;99.90
20957;DHT22;10637;47.970;7.830;2023-04-08T16:17:11;13.40;99.90
20957;DHT22;10637;47.970;7.830;2023-04-08T16:22:13;13.50;99.90
20957;DHT22;10637;47.970;7.830;2023-04-08T16:27:14;13.50;99.90
20957;DHT22;10637;47.970;7.830;2023-04-08T16:32:16;13.40;99.90
20957;DHT22;10637;47.970;7.830;2023-04-08T16:37:18;13.30;99.90
20957;DHT22;10637;47.970;7.830;2023-04-08T16:42:20;13.20;99.90
20957;DHT22;10637;47.970;7.830;2023-04-08T16:47:22;13.00;99.90
20957;DHT22;10637;47.970;7.830;2023-04-08T16:52:24;13.00;99.90
20957;DHT22;10637;47.970;7.830;2023-04-08T16:57:26;12.90;99.90
20957;DHT22;10637;47.970;7.830;2023-04-08T17:02:28;12.90;99.90
20957;DHT22;10637;47.970;7.830;2023-04-08T17:07:30;12.90;99.90
20957;DHT22;10637;47.970;7.830;2023-04-08T17:12:32;12.80;99.90
20957;DHT22;10637;47.970;7.830;2023-04-08T17:17:33;12.70;99.90
20957;DHT22;10637;47.970;7.830;2023-04-08T17:22:35;12.70;99.90
20957;DHT22;10637;47.970;7.830;2023-04-08T17:27:37;12.60;99.90
20957;DHT22;10637;47.970;7.830;2023-04-08T17:32:39;12.60;99.90
20957;DHT22;10637;47.970;7.830;2023-04-08T17:37:41;12.50;99.90
20957;DHT22;10637;47.970;7.830;2023-04-08T17:42:42;12.60;99.90
20957;DHT22;10637;47.970;7.830;2023-04-08T17:47:44;12.60;99.90
20957;DHT22;10637;47.970;7.830;2023-04-08T17:52:46;12.60;99.90
20957;DHT22;10637;47.970;7.830;2023-04-08T17:57:48;12.40;99.90
20957;DHT22;10637;47.970;7.830;2023-04-08T18:02:50;12.40;99.90
20957;DHT22;10637;47.970;7.830;2023-04-08T18:07:52;12.40;99.90
20957;DHT22;10637;47.970;7.830;2023-04-08T18:12:54;12.30;99.90
20957;DHT22;10637;47.970;7.830;2023-04-08T18:18:11;12.10;99.90
20957;DHT22;10637;47.970;7.830;2023-04-08T18:23:15;12.10;99.90
20957;DHT22;10637;47.970;7.830;2023-04-08T18:28:17;12.00;99.90
20957;DHT22;10637;47.970;7.830;2023-04-08T18:33:19;12.00;99.90
20957;DHT22;10637;47.970;7.830;2023-04-08T18:38:21;12.00;99.90
20957;DHT22;10637;47.970;7.830;2023-04-08T18:43:23;11.90;99.90
20957;DHT22;10637;47.970;7.830;2023-04-08T18:48:25;11.90;99.90
20957;DHT22;10637;47.970;7.830;2023-04-08T18:53:27;11.80;99.90
20957;DHT22;10637;47.970;7.830;2023-04-08T18:58:29;11.70;99.90
20957;DHT22;10637;47.970;7.830;2023-04-08T19:03:33;11.60;99.90
20957;DHT22;10637;47.970;7.830;2023-04-08T19:08:36;11.60;99.90
20957;DHT22;10637;47.970;7.830;2023-04-08T19:13:37;11.60;99.90
20957;DHT22;10637;47.970;7.830;2023-04-08T19:18:40;11.60;99.90
20957;DHT22;10637;47.970;7.830;2023-04-08T19:23:42;11.60;99.90
20957;DHT22;10637;47.970;7.830;2023-04-08T19:28:43;11.60;99.90
20957;DHT22;10637;47.970;7.830;2023-04-08T19:33:46;11.40;99.90
20957;DHT22;10637;47.970;7.830;2023-04-08T19:38:48;11.40;99.90
20957;DHT22;10637;47.970;7.830;2023-04-08T19:43:50;11.30;99.90
20957;DHT22;10637;47.970;7.830;2023-04-08T19:48:52;11.30;99.90
20957;DHT22;10637;47.970;7.830;2023-04-08T19:53:56;11.30;99.90
20957;DHT22;10637;47.970;7.830;2023-04-08T19:58:59;11.30;99.90
20957;DHT22;10637;47.970;7.830;2023-04-08T20:04:02;11.20;99.90
20957;DHT22;10637;47.970;7.830;2023-04-08T20:09:04;11.10;99.90
20957;DHT22;10637;47.970;7.830;2023-04-08T20:14:06;10.90;99.90
20957;DHT22;10637;47.970;7.830;2023-04-08T20:19:08;10.80;99.90
20957;DHT22;10637;47.970;7.830;2023-04-08T20:24:09;10.70;99.90
20957;DHT22;10637;47.970;7.830;2023-04-08T20:29:12;10.50;99.90
20957;DHT22;10637;47.970;7.830;2023-04-08T20:34:13;10.30;99.90
20957;DHT22;10637;47.970;7.830;2023-04-08T20:39:15;10.20;99.90
20957;DHT22;10637;47.970;7.830;2023-04-08T20:44:17;10.00;99.90
20957;DHT22;10637;47.970;7.830;2023-04-08T20:49:19;9.90;99.90
20957;DHT22;10637;47.970;7.830;2023-04-08T20:54:21;9.90;99.90
20957;DHT22;10637;47.970;7.830;2023-04-08T20:59:23;9.80;99.90
20957;DHT22;10637;47.970;7.830;2023-04-08T21:04:24;9.80;99.90
20957;DHT22;10637;47.970;7.830;2023-04-08T21:09:26;9.70;99.90
20957;DHT22;10637;47.970;7.830;2023-04-08T21:14:28;9.70;99.90
20957;DHT22;10637;47.970;7.830;2023-04-08T21:19:31;9.60;99.90
20957;DHT22;10637;47.970;7.830;2023-04-08T21:24:33;9.50;99.90
20957;DHT22;10637;47.970;7.830;2023-04-08T21:29:35;9.60;99.90
20957;DHT22;10637;47.970;7.830;2023-04-08T21:34:37;9.40;99.90
20957;DHT22;10637;47.970;7.830;2023-04-08T21:39:38;9.20;99.90
20957;DHT22;10637;47.970;7.830;2023-04-08T21:44:40;9.30;99.90
20957;DHT22;10637;47.970;7.830;2023-04-08T21:49:42;9.30;99.90
20957;DHT22;10637;47.970;7.830;2023-04-08T21:54:48;9.40;99.90
20957;DHT22;10637;47.970;7.830;2023-04-08T21:59:51;9.30;99.90
20957;DHT22;10637;47.970;7.830;2023-04-08T22:04:53;9.10;99.90
20957;DHT22;10637;47.970;7.830;2023-04-08T22:09:55;9.10;99.90
20957;DHT22;10637;47.970;7.830;2023-04-08T22:14:57;9.10;99.90
20957;DHT22;10637;47.970;7.830;2023-04-08T22:19:58;9.00;99.90
20957;DHT22;10637;47.970;7.830;2023-04-08T22:25:00;8.90;99.90
20957;DHT22;10637;47.970;7.830;2023-04-08T22:30:02;8.90;99.90
20957;DHT22;10637;47.970;7.830;2023-04-08T22:35:04;8.90;99.90
20957;DHT22;10637;47.970;7.830;2023-04-08T22:40:07;8.70;99.90
20957;DHT22;10637;47.970;7.830;2023-04-08T22:45:09;8.80;99.90
20957;DHT22;10637;47.970;7.830;2023-04-08T22:50:11;8.70;99.90
20957;DHT22;10637;47.970;7.830;2023-04-08T22:55:13;8.90;99.90
20957;DHT22;10637;47.970;7.830;2023-04-08T23:00:14;9.00;99.90
20957;DHT22;10637;47.970;7.830;2023-04-08T23:05:17;8.60;99.90
20957;DHT22;10637;47.970;7.830;2023-04-08T23:10:18;8.30;99.90
20957;DHT22;10637;47.970;7.830;2023-04-08T23:15:20;8.20;99.90
20957;DHT22;10637;47.970;7.830;2023-04-08T23:20:22;8.40;99.90
20957;DHT22;10637;47.970;7.830;2023-04-08T23:25:24;8.60;99.90
20957;DHT22;10637;47.970;7.830;2023-04-08T23:30:26;8.60;99.90
20957;DHT22;10637;47.970;7.830;2023-04-08T23:35:28;8.60;99.90
20957;DHT22;10637;47.970;7.830;2023-04-08T23:40:29;8.60;99.90
20957;DHT22;10637;47.970;7.830;2023-04-08T23:45:31;8.50;99.90
20957;DHT22;10637;47.970;7.830;2023-04-08T23:50:33;8.60;99.90
20957;DHT22;10637;47.970;7.830;2023-04-08T23:55:34;8.50;99.90
